Observation data for Aspermont on 07/11/2018      Previous  Date       Current Mesonet Observations  Soil Data  Daily Summary Page  Observations in Plain Language
KASR 110505Z 13006KT 26/19 A3008 RMK A01 T02630187  RH  064%=      5-min Rain = 0
KASR 110510Z 13006KT 26/19 A3008 RMK A01 T02620187  RH  065%=      5-min Rain = 0
KASR 110515Z 13006KT 26/19 A3008 RMK A01 T02620187  RH  065%=      5-min Rain = 0
KASR 110520Z 13006KT 26/19 A3008 RMK A01 T02610187  RH  065%=      5-min Rain = 0
KASR 110525Z 13006KT 26/19 A3007 RMK A01 T02600187  RH  066%=      5-min Rain = 0
KASR 110530Z 13006KT 26/19 A3007 RMK A01 T02590187  RH  066%=      5-min Rain = 0
KASR 110535Z 13006KT 26/19 A3008 RMK A01 T02590187  RH  066%=      5-min Rain = 0
KASR 110540Z 13005KT 26/19 A3008 RMK A01 T02580187  RH  067%=      5-min Rain = 0
KASR 110545Z 13005KT 26/19 A3008 RMK A01 T02570188  RH  067%=      5-min Rain = 0
KASR 110550Z 13005KT 26/19 A3008 RMK A01 T02560189  RH  068%=      5-min Rain = 0
KASR 110555Z 13005KT 26/19 A3008 RMK A01 T02560189  RH  068%=      5-min Rain = 0
KASR 110600Z 13005KT 26/19 A3007 RMK A01 T02550190  RH  069%=      5-min Rain = 0
KASR 110605Z 13004KT 26/19 A3007 RMK A01 T02550190  RH  069%=      5-min Rain = 0
KASR 110610Z 12004KT 25/19 A3007 RMK A01 T02540190  RH  070%=      5-min Rain = 0
KASR 110615Z 12003KT 25/19 A3007 RMK A01 T02520190  RH  070%=      5-min Rain = 0
KASR 110620Z 11002KT 25/19 A3007 RMK A01 T02510190  RH  071%=      5-min Rain = 0
KASR 110625Z 13002KT 25/19 A3007 RMK A01 T02500191  RH  072%=      5-min Rain = 0
KASR 110630Z 13002KT 25/19 A3007 RMK A01 T02490191  RH  072%=      5-min Rain = 0
KASR 110635Z 14002KT 25/19 A3007 RMK A01 T02480191  RH  072%=      5-min Rain = 0
KASR 110640Z 14002KT 25/19 A3007 RMK A01 T02480192  RH  073%=      5-min Rain = 0
KASR 110645Z 15003KT 25/19 A3007 RMK A01 T02470192  RH  073%=      5-min Rain = 0
KASR 110650Z 16002KT 25/19 A3007 RMK A01 T02460191  RH  073%=      5-min Rain = 0
KASR 110655Z 16002KT 25/19 A3007 RMK A01 T02450191  RH  074%=      5-min Rain = 0
KASR 110700Z 15002KT 24/19 A3007 RMK A01 T02430190  RH  075%=      5-min Rain = 0
KASR 110705Z 14002KT 24/19 A3007 RMK A01 T02410189  RH  075%=      5-min Rain = 0
KASR 110710Z 13003KT 24/19 A3007 RMK A01 T02370189  RH  076%=      5-min Rain = 0
KASR 110715Z 13003KT 24/19 A3007 RMK A01 T02350189  RH  077%=      5-min Rain = 0
KASR 110720Z 12003KT 23/19 A3007 RMK A01 T02340189  RH  078%=      5-min Rain = 0
KASR 110725Z 12003KT 23/19 A3007 RMK A01 T02330189  RH  078%=      5-min Rain = 0
KASR 110730Z 12002KT 23/19 A3007 RMK A01 T02320189  RH  079%=      5-min Rain = 0
KASR 110735Z 13002KT 23/19 A3006 RMK A01 T02300188  RH  079%=      5-min Rain = 0
KASR 110740Z 16003KT 23/19 A3006 RMK A01 T02300188  RH  079%=      5-min Rain = 0
KASR 110745Z 16004KT 23/19 A3006 RMK A01 T02310185  RH  077%=      5-min Rain = 0
KASR 110750Z 16004KT 23/19 A3007 RMK A01 T02310187  RH  078%=      5-min Rain = 0
KASR 110755Z 15004KT 23/19 A3007 RMK A01 T02310187  RH  079%=      5-min Rain = 0
KASR 110800Z 15004KT 23/19 A3006 RMK A01 T02310187  RH  078%=      5-min Rain = 0
KASR 110805Z 15003KT 23/19 A3007 RMK A01 T02310187  RH  078%=      5-min Rain = 0
KASR 110810Z 14002KT 23/19 A3006 RMK A01 T02310188  RH  079%=      5-min Rain = 0
KASR 110815Z 14002KT 23/19 A3007 RMK A01 T02290188  RH  079%=      5-min Rain = 0
KASR 110820Z 14002KT 23/19 A3007 RMK A01 T02270188  RH  080%=      5-min Rain = 0
KASR 110825Z 15002KT 23/19 A3007 RMK A01 T02250189  RH  082%=      5-min Rain = 0
KASR 110830Z 15003KT 23/19 A3007 RMK A01 T02250188  RH  082%=      5-min Rain = 0
KASR 110835Z 16003KT 23/19 A3006 RMK A01 T02250188  RH  082%=      5-min Rain = 0
KASR 110840Z 16004KT 23/19 A3006 RMK A01 T02250187  RH  081%=      5-min Rain = 0
KASR 110845Z 17004KT 23/19 A3006 RMK A01 T02250188  RH  081%=      5-min Rain = 0
KASR 110850Z 17004KT 23/19 A3006 RMK A01 T02260189  RH  082%=      5-min Rain = 0
KASR 110855Z 17003KT 23/19 A3006 RMK A01 T02250189  RH  082%=      5-min Rain = 0
KASR 110900Z 17004KT 23/19 A3006 RMK A01 T02260190  RH  082%=      5-min Rain = 0
KASR 110905Z 17005KT 23/19 A3006 RMK A01 T02280191  RH  082%=      5-min Rain = 0
KASR 110910Z 17004KT 23/19 A3006 RMK A01 T02300191  RH  081%=      5-min Rain = 0
KASR 110915Z 18004KT 23/19 A3006 RMK A01 T02320191  RH  080%=      5-min Rain = 0
KASR 110920Z 18004KT 23/19 A3006 RMK A01 T02320192  RH  080%=      5-min Rain = 0
KASR 110925Z 18005KT 23/19 A3006 RMK A01 T02330192  RH  080%=      5-min Rain = 0
KASR 110930Z 19005KT 23/19 A3006 RMK A01 T02330191  RH  079%=      5-min Rain = 0
KASR 110935Z 19004KT 23/19 A3006 RMK A01 T02340191  RH  079%=      5-min Rain = 0
KASR 110940Z 19004KT 24/19 A3006 RMK A01 T02350191  RH  079%=      5-min Rain = 0
KASR 110945Z 20005KT 24/19 A3006 RMK A01 T02350191  RH  078%=      5-min Rain = 0
KASR 110950Z 20006KT 24/19 A3006 RMK A01 T02350191  RH  078%=      5-min Rain = 0
KASR 110955Z 20005KT 24/19 A3006 RMK A01 T02350191  RH  078%=      5-min Rain = 0
KASR 111000Z 20006KT 24/19 A3005 RMK A01 T02350191  RH  078%=      5-min Rain = 0
KASR 111005Z 20005KT 24/19 A3005 RMK A01 T02350191  RH  078%=      5-min Rain = 0
KASR 111010Z 20006KT 24/19 A3005 RMK A01 T02350190  RH  078%=      5-min Rain = 0
KASR 111015Z 20006KT 24/19 A3005 RMK A01 T02350190  RH  078%=      5-min Rain = 0
KASR 111020Z 20005KT 24/19 A3005 RMK A01 T02350190  RH  078%=      5-min Rain = 0
KASR 111025Z 20005KT 24/19 A3005 RMK A01 T02350190  RH  078%=      5-min Rain = 0
KASR 111030Z 19004KT 23/19 A3005 RMK A01 T02340190  RH  078%=      5-min Rain = 0
KASR 111035Z 19004KT 23/19 A3005 RMK A01 T02330189  RH  079%=      5-min Rain = 0
KASR 111040Z 19004KT 23/19 A3005 RMK A01 T02300189  RH  079%=      5-min Rain = 0
KASR 111045Z 18004KT 23/19 A3006 RMK A01 T02290189  RH  080%=      5-min Rain = 0
KASR 111050Z 19003KT 23/19 A3006 RMK A01 T02280188  RH  080%=      5-min Rain = 0
KASR 111055Z 20003KT 23/19 A3006 RMK A01 T02270188  RH  081%=      5-min Rain = 0
KASR 111100Z 20002KT 23/19 A3006 RMK A01 T02270188  RH  081%=      5-min Rain = 0
KASR 111105Z 20003KT 23/19 A3006 RMK A01 T02260188  RH  081%=      5-min Rain = 0
KASR 111110Z 19002KT 23/19 A3006 RMK A01 T02250187  RH  081%=      5-min Rain = 0
KASR 111115Z 19003KT 22/19 A3006 RMK A01 T02230188  RH  082%=      5-min Rain = 0
KASR 111120Z 19003KT 22/19 A3006 RMK A01 T02220187  RH  083%=      5-min Rain = 0
KASR 111125Z 20004KT 22/19 A3006 RMK A01 T02200186  RH  083%=      5-min Rain = 0
KASR 111130Z 20004KT 22/19 A3006 RMK A01 T02200186  RH  083%=      5-min Rain = 0
KASR 111135Z 20004KT 22/19 A3007 RMK A01 T02210187  RH  083%=      5-min Rain = 0
KASR 111140Z 20004KT 22/19 A3007 RMK A01 T02190186  RH  084%=      5-min Rain = 0
KASR 111145Z 20004KT 22/19 A3007 RMK A01 T02180186  RH  084%=      5-min Rain = 0
KASR 111150Z 20004KT 22/19 A3007 RMK A01 T02170185  RH  084%=      5-min Rain = 0
KASR 111155Z 20004KT 22/18 A3007 RMK A01 T02180184  RH  084%=      5-min Rain = 0
KASR 111200Z 21003KT 22/18 A3007 RMK A01 T02180184  RH  083%=      5-min Rain = 0
KASR 111205Z 21002KT 22/18 A3008 RMK A01 T02200184  RH  082%=      5-min Rain = 0
KASR 111210Z 20002KT 22/18 A3008 RMK A01 T02220184  RH  081%=      5-min Rain = 0
KASR 111215Z 21002KT 22/18 A3008 RMK A01 T02230184  RH  081%=      5-min Rain = 0
KASR 111220Z 22002KT 23/19 A3008 RMK A01 T02250185  RH  080%=      5-min Rain = 0
KASR 111225Z 21003KT 23/19 A3008 RMK A01 T02300186  RH  079%=      5-min Rain = 0
KASR 111230Z 21003KT 23/19 A3008 RMK A01 T02330186  RH  077%=      5-min Rain = 0
KASR 111235Z 21002KT 24/19 A3008 RMK A01 T02350186  RH  076%=      5-min Rain = 0
KASR 111240Z 21003KT 24/19 A3009 RMK A01 T02370185  RH  075%=      5-min Rain = 0
KASR 111245Z 20002KT 24/18 A3009 RMK A01 T02380184  RH  073%=      5-min Rain = 0
KASR 111250Z 20002KT 24/18 A3009 RMK A01 T02410184  RH  072%=      5-min Rain = 0
KASR 111255Z 20004KT 24/18 A3009 RMK A01 T02440181  RH  069%=      5-min Rain = 0
KASR 111300Z 21004KT 25/18 A3009 RMK A01 T02490181  RH  068%=      5-min Rain = 0
KASR 111305Z 20004KT 25/18 A3009 RMK A01 T02520181  RH  066%=      5-min Rain = 0
KASR 111310Z 21004KT 25/18 A3009 RMK A01 T02540181  RH  066%=      5-min Rain = 0
KASR 111315Z 21005KT 26/18 A3009 RMK A01 T02550181  RH  065%=      5-min Rain = 0
KASR 111320Z 20006KT 26/18 A3009 RMK A01 T02560178  RH  064%=      5-min Rain = 0
KASR 111325Z 21005KT 26/18 A3009 RMK A01 T02590177  RH  062%=      5-min Rain = 0
KASR 111330Z 22005KT 26/18 A301 RMK A01 T02630176  RH  060%=      5-min Rain = 0
KASR 111335Z 22006KT 27/17 A301 RMK A01 T02670174  RH  058%=      5-min Rain = 0
KASR 111340Z 22005KT 27/18 A301 RMK A01 T02710175  RH  057%=      5-min Rain = 0
KASR 111345Z 22005KT 27/17 A301 RMK A01 T02730173  RH  056%=      5-min Rain = 0
KASR 111350Z 22007KT 27/17 A301 RMK A01 T02730172  RH  055%=      5-min Rain = 0
KASR 111355Z 22006KT 28/17 A301 RMK A01 T02760172  RH  055%=      5-min Rain = 0
KASR 111400Z 22006KT 28/17 A301 RMK A01 T02800172  RH  053%=      5-min Rain = 0
KASR 111405Z 21008KT 28/17 A3011 RMK A01 T02840171  RH  052%=      5-min Rain = 0
KASR 111410Z 20007KT 29/17 A3011 RMK A01 T02880173  RH  051%=      5-min Rain = 0
KASR 111415Z 23007KT 29/17 A3011 RMK A01 T02900174  RH  051%=      5-min Rain = 0
KASR 111420Z 21011KT 29/17 A3011 RMK A01 T02880174  RH  051%=      5-min Rain = 0
KASR 111425Z 21009KT 29/17 A3011 RMK A01 T02890174  RH  051%=      5-min Rain = 0
KASR 111430Z 22009KT 29/18 A3011 RMK A01 T02920175  RH  051%=      5-min Rain = 0
KASR 111435Z 23010KT 29/18 A3011 RMK A01 T02930176  RH  051%=      5-min Rain = 0
KASR 111440Z 22009KT 29/18 A3011 RMK A01 T02930176  RH  051%=      5-min Rain = 0
KASR 111445Z 23009KT 29/18 A3011 RMK A01 T02930177  RH  051%=      5-min Rain = 0
KASR 111450Z 22010KT 30/18 A3011 RMK A01 T02960177  RH  050%=      5-min Rain = 0
KASR 111455Z 22010KT 30/18 A3011 RMK A01 T02970177  RH  050%=      5-min Rain = 0
KASR 111500Z 21009KT 30/18 A301 RMK A01 T02980178  RH  050%=      5-min Rain = 0
KASR 111505Z 22008KT 30/18 A301 RMK A01 T03010178  RH  049%=      5-min Rain = 0
KASR 111510Z 21008KT 31/18 A301 RMK A01 T03070179  RH  048%=      5-min Rain = 0
KASR 111515Z 21009KT 31/18 A301 RMK A01 T03070179  RH  048%=      5-min Rain = 0
KASR 111520Z 21009KT 31/18 A301 RMK A01 T03060179  RH  048%=      5-min Rain = 0
KASR 111525Z 21008G13KT 31/18 A301 RMK A01 T03110181  RH  047%=      5-min Rain = 0
KASR 111530Z 21009KT 32/18 A301 RMK A01 T03150181  RH  046%=      5-min Rain = 0
KASR 111535Z 19010KT 31/18 A301 RMK A01 T03120179  RH  046%=      5-min Rain = 0
KASR 111540Z 22010KT 31/18 A301 RMK A01 T03120178  RH  046%=      5-min Rain = 0
KASR 111545Z 21009G14KT 31/18 A301 RMK A01 T03140179  RH  046%=      5-min Rain = 0
KASR 111550Z 21009KT 32/18 A301 RMK A01 T03190179  RH  044%=      5-min Rain = 0
KASR 111555Z 22009KT 32/18 A301 RMK A01 T03200180  RH  044%=      5-min Rain = 0
KASR 111600Z 22009KT 32/18 A301 RMK A01 T03210180  RH  044%=      5-min Rain = 0
KASR 111605Z 24010KT 32/18 A301 RMK A01 T03200178  RH  044%=      5-min Rain = 0
KASR 111610Z 23009KT 32/18 A301 RMK A01 T03230178  RH  043%=      5-min Rain = 0
KASR 111615Z 24007KT 33/18 A3009 RMK A01 T03280179  RH  042%=      5-min Rain = 0
KASR 111620Z 21008KT 33/18 A3009 RMK A01 T03300177  RH  041%=      5-min Rain = 0
KASR 111625Z 24008KT 33/18 A3009 RMK A01 T03280177  RH  042%=      5-min Rain = 0
KASR 111630Z 24007G12KT 33/18 A3009 RMK A01 T03310177  RH  041%=      5-min Rain = 0
KASR 111635Z 24008KT 33/18 A3009 RMK A01 T03320176  RH  040%=      5-min Rain = 0
KASR 111640Z 21008KT 33/17 A3009 RMK A01 T03320174  RH  040%=      5-min Rain = 0
KASR 111645Z 21005KT 33/17 A3008 RMK A01 T03310173  RH  040%=      5-min Rain = 0
KASR 111650Z 19007G12KT 34/18 A3008 RMK A01 T03390176  RH  039%=      5-min Rain = 0
KASR 111655Z 22006G12KT 34/17 A3008 RMK A01 T03390174  RH  038%=      5-min Rain = 0
KASR 111700Z 22005KT 34/17 A3008 RMK A01 T03430173  RH  037%=      5-min Rain = 0
KASR 111705Z 22005G11KT 35/17 A3008 RMK A01 T03460167  RH  035%=      5-min Rain = 0
KASR 111710Z 22005G11KT 34/16 A3008 RMK A01 T03420162  RH  035%=      5-min Rain = 0
KASR 111715Z 19011G17KT 35/16 A3007 RMK A01 T03450159  RH  034%=      5-min Rain = 0
KASR 111720Z 20007KT 35/16 A3008 RMK A01 T03450155  RH  033%=      5-min Rain = 0
KASR 111725Z 19006G11KT 34/16 A3007 RMK A01 T03440160  RH  034%=      5-min Rain = 0
KASR 111730Z 19008G15KT 35/16 A3007 RMK A01 T03480162  RH  034%=      5-min Rain = 0
KASR 111735Z 20007G13KT 34/16 A3007 RMK A01 T03410161  RH  035%=      5-min Rain = 0
KASR 111740Z 21005KT 34/16 A3007 RMK A01 T03440158  RH  034%=      5-min Rain = 0
KASR 111745Z 17006KT 35/15 A3007 RMK A01 T03520154  RH  031%=      5-min Rain = 0
KASR 111750Z 17006KT 36/15 A3007 RMK A01 T03560154  RH  031%=      5-min Rain = 0
KASR 111755Z 17008KT 35/15 A3007 RMK A01 T03470151  RH  032%=      5-min Rain = 0
KASR 111800Z 18009G15KT 34/15 A3006 RMK A01 T03440148  RH  032%=      5-min Rain = 0
KASR 111805Z 18005G13KT 34/14 A3006 RMK A01 T03440143  RH  031%=      5-min Rain = 0
KASR 111810Z 17008KT 35/14 A3006 RMK A01 T03450138  RH  029%=      5-min Rain = 0
KASR 111815Z 17011G17KT 36/15 A3006 RMK A01 T03590147  RH  029%=      5-min Rain = 0
KASR 111820Z 18011G16KT 36/15 A3006 RMK A01 T03580145  RH  029%=      5-min Rain = 0
KASR 111825Z 18010G18KT 36/15 A3005 RMK A01 T03580146  RH  029%=      5-min Rain = 0
KASR 111830Z 17009G15KT 36/15 A3005 RMK A01 T03550146  RH  029%=      5-min Rain = 0
KASR 111835Z 21007G13KT 36/15 A3005 RMK A01 T03590145  RH  029%=      5-min Rain = 0
KASR 111840Z 18010G18KT 37/15 A3005 RMK A01 T03660145  RH  027%=      5-min Rain = 0
KASR 111845Z 17007G13KT 36/15 A3005 RMK A01 T03640147  RH  028%=      5-min Rain = 0
KASR 111850Z 17010G16KT 36/15 A3005 RMK A01 T03620149  RH  029%=      5-min Rain = 0
KASR 111855Z 16009G21KT 35/15 A3005 RMK A01 T03540150  RH  030%=      5-min Rain = 0
KASR 111900Z 17012G18KT 36/15 A3005 RMK A01 T03630147  RH  028%=      5-min Rain = 0
KASR 111905Z 18009G14KT 36/15 A3004 RMK A01 T03630146  RH  028%=      5-min Rain = 0
KASR 111910Z 17011G17KT 37/15 A3004 RMK A01 T03670147  RH  028%=      5-min Rain = 0
KASR 111915Z 17009G18KT 36/15 A3004 RMK A01 T03640145  RH  028%=      5-min Rain = 0
KASR 111920Z 17009G15KT 36/14 A3004 RMK A01 T03630143  RH  027%=      5-min Rain = 0
KASR 111925Z 17011G20KT 37/15 A3003 RMK A01 T03680145  RH  027%=      5-min Rain = 0
KASR 111930Z 17010G18KT 37/14 A3003 RMK A01 T03680141  RH  026%=      5-min Rain = 0
KASR 111935Z 17013G20KT 36/14 A3003 RMK A01 T03640138  RH  026%=      5-min Rain = 0
KASR 111940Z 17010G19KT 36/14 A3003 RMK A01 T03550136  RH  027%=      5-min Rain = 0
KASR 111945Z 17006KT 36/14 A3002 RMK A01 T03580136  RH  027%=      5-min Rain = 0
KASR 111950Z 15012G17KT 36/14 A3002 RMK A01 T03610135  RH  027%=      5-min Rain = 0
KASR 111955Z 17012G20KT 37/14 A3002 RMK A01 T03670136  RH  026%=      5-min Rain = 0
KASR 112000Z 17011G17KT 37/14 A3002 RMK A01 T03720136  RH  025%=      5-min Rain = 0
KASR 112005Z 17011G16KT 37/14 A3001 RMK A01 T03690137  RH  026%=      5-min Rain = 0
KASR 112010Z 18010G16KT 37/14 A3001 RMK A01 T03730135  RH  025%=      5-min Rain = 0
KASR 112015Z 17009G15KT 37/14 A3001 RMK A01 T03720135  RH  025%=      5-min Rain = 0
KASR 112020Z 16010G15KT 37/14 A3001 RMK A01 T03670138  RH  026%=      5-min Rain = 0
KASR 112025Z 19009G14KT 37/13 A30 RMK A01 T03720129  RH  024%=      5-min Rain = 0
KASR 112030Z 16010G16KT 38/13 A30 RMK A01 T03760134  RH  024%=      5-min Rain = 0
KASR 112035Z 15011G19KT 37/13 A30 RMK A01 T03730134  RH  025%=      5-min Rain = 0
KASR 112040Z 15011G18KT 37/13 A30 RMK A01 T03680132  RH  025%=      5-min Rain = 0
KASR 112045Z 17008G14KT 38/13 A30 RMK A01 T03750132  RH  024%=      5-min Rain = 0
KASR 112050Z 15013G22KT 37/14 A30 RMK A01 T03680138  RH  026%=      5-min Rain = 0
KASR 112055Z 15010G17KT 37/14 A2999 RMK A01 T03660139  RH  026%=      5-min Rain = 0
KASR 112100Z 14012G17KT 37/14 A2999 RMK A01 T03720139  RH  025%=      5-min Rain = 0
KASR 112105Z 13010G18KT 37/14 A2999 RMK A01 T03720141  RH  026%=      5-min Rain = 0
KASR 112110Z 13011G18KT 37/14 A2998 RMK A01 T03720142  RH  026%=      5-min Rain = 0
KASR 112115Z 13010G16KT 36/14 A2998 RMK A01 T03620139  RH  027%=      5-min Rain = 0
KASR 112120Z 11011G19KT 37/14 A2998 RMK A01 T03720141  RH  026%=      5-min Rain = 0
KASR 112125Z 12010G17KT 36/14 A2998 RMK A01 T03640141  RH  027%=      5-min Rain = 0
KASR 112130Z 14011G18KT 36/14 A2998 RMK A01 T03610141  RH  027%=      5-min Rain = 0
KASR 112135Z 16008G14KT 36/14 A2998 RMK A01 T03610140  RH  027%=      5-min Rain = 0
KASR 112140Z 14011G18KT 36/14 A2997 RMK A01 T03640142  RH  027%=      5-min Rain = 0
KASR 112145Z 15011G20KT 36/14 A2997 RMK A01 T03580141  RH  028%=      5-min Rain = 0
KASR 112150Z 16007G15KT 36/14 A2997 RMK A01 T03570141  RH  028%=      5-min Rain = 0
KASR 112155Z 16010G16KT 36/14 A2997 RMK A01 T03580143  RH  028%=      5-min Rain = 0
KASR 112200Z 17012G17KT 36/14 A2997 RMK A01 T03550144  RH  029%=      5-min Rain = 0
KASR 112205Z 17010G15KT 36/14 A2996 RMK A01 T03560142  RH  029%=      5-min Rain = 0
KASR 112210Z 17008KT 36/14 A2996 RMK A01 T03590142  RH  028%=      5-min Rain = 0
KASR 112215Z 16009G17KT 37/14 A2996 RMK A01 T03650144  RH  027%=      5-min Rain = 0
KASR 112220Z 17011G18KT 37/15 A2996 RMK A01 T03720145  RH  027%=      5-min Rain = 0
KASR 112225Z 16010G18KT 37/15 A2996 RMK A01 T03690146  RH  027%=      5-min Rain = 0
KASR 112230Z 16011G17KT 37/15 A2995 RMK A01 T03710146  RH  027%=      5-min Rain = 0
KASR 112235Z 16009G17KT 37/15 A2995 RMK A01 T03740146  RH  026%=      5-min Rain = 0
KASR 112240Z 15010G16KT 37/14 A2995 RMK A01 T03720143  RH  026%=      5-min Rain = 0
KASR 112245Z 14009G14KT 37/14 A2995 RMK A01 T03680142  RH  027%=      5-min Rain = 0
KASR 112250Z 13011G20KT 37/14 A2995 RMK A01 T03710142  RH  026%=      5-min Rain = 0
KASR 112255Z 16012G17KT 37/14 A2995 RMK A01 T03720139  RH  026%=      5-min Rain = 0
KASR 112300Z 15008G13KT 37/14 A2995 RMK A01 T03710141  RH  026%=      5-min Rain = 0
KASR 112305Z 14011G17KT 37/14 A2995 RMK A01 T03720138  RH  025%=      5-min Rain = 0
KASR 112310Z 16009G15KT 37/14 A2995 RMK A01 T03720139  RH  026%=      5-min Rain = 0
KASR 112315Z 14009G15KT 37/14 A2995 RMK A01 T03710140  RH  026%=      5-min Rain = 0
KASR 112320Z 16009KT 37/14 A2994 RMK A01 T03730139  RH  025%=      5-min Rain = 0
KASR 112325Z 15008KT 37/14 A2994 RMK A01 T03720139  RH  025%=      5-min Rain = 0
KASR 112330Z 15009G15KT 37/14 A2994 RMK A01 T03710140  RH  026%=      5-min Rain = 0
KASR 112335Z 15010G15KT 37/14 A2994 RMK A01 T03660140  RH  027%=      5-min Rain = 0
KASR 112340Z 15009G14KT 36/14 A2994 RMK A01 T03620141  RH  027%=      5-min Rain = 0
KASR 112345Z 14009G16KT 36/14 A2994 RMK A01 T03610140  RH  027%=      5-min Rain = 0
KASR 112350Z 14008G13KT 37/14 A2994 RMK A01 T03650139  RH  027%=      5-min Rain = 0
KASR 112355Z 15009KT 37/14 A2994 RMK A01 T03670138  RH  026%=      5-min Rain = 0
KASR 120000Z 14008G13KT 37/14 A2994 RMK A01 T03660137  RH  026%=      5-min Rain = 0
KASR 120005Z 15008G13KT 37/14 A2994 RMK A01 T03680138  RH  026%=      5-min Rain = 0
KASR 120010Z 14008KT 36/14 A2994 RMK A01 T03630139  RH  027%=      5-min Rain = 0
KASR 120015Z 15009G17KT 36/14 A2994 RMK A01 T03610139  RH  027%=      5-min Rain = 0
KASR 120020Z 15009G14KT 36/14 A2994 RMK A01 T03630139  RH  027%=      5-min Rain = 0
KASR 120025Z 16010G15KT 36/14 A2995 RMK A01 T03580138  RH  027%=      5-min Rain = 0
KASR 120030Z 15009G15KT 36/14 A2995 RMK A01 T03570139  RH  028%=      5-min Rain = 0
KASR 120035Z 14009KT 36/14 A2995 RMK A01 T03550138  RH  028%=      5-min Rain = 0
KASR 120040Z 14007G12KT 36/14 A2995 RMK A01 T03550139  RH  028%=      5-min Rain = 0
KASR 120045Z 14007KT 35/14 A2995 RMK A01 T03540139  RH  028%=      5-min Rain = 0
KASR 120050Z 14008G13KT 35/14 A2995 RMK A01 T03530140  RH  029%=      5-min Rain = 0
KASR 120055Z 14009KT 35/14 A2995 RMK A01 T03520141  RH  029%=      5-min Rain = 0
KASR 120100Z 14008KT 35/14 A2995 RMK A01 T03510141  RH  029%=      5-min Rain = 0
KASR 120105Z 15008KT 35/14 A2995 RMK A01 T03500141  RH  029%=      5-min Rain = 0
KASR 120110Z 15008KT 35/14 A2995 RMK A01 T03490140  RH  029%=      5-min Rain = 0
KASR 120115Z 15007KT 35/14 A2995 RMK A01 T03480140  RH  029%=      5-min Rain = 0
KASR 120120Z 14006KT 35/14 A2996 RMK A01 T03470139  RH  029%=      5-min Rain = 0
KASR 120125Z 14006KT 35/14 A2996 RMK A01 T03460139  RH  029%=      5-min Rain = 0
KASR 120130Z 14006KT 35/14 A2996 RMK A01 T03450138  RH  029%=      5-min Rain = 0
KASR 120135Z 14006KT 34/14 A2996 RMK A01 T03440138  RH  030%=      5-min Rain = 0
KASR 120140Z 14006KT 34/14 A2996 RMK A01 T03430138  RH  030%=      5-min Rain = 0
KASR 120145Z 14005KT 34/14 A2996 RMK A01 T03410138  RH  030%=      5-min Rain = 0
KASR 120150Z 14005G10KT 34/14 A2996 RMK A01 T03400138  RH  030%=      5-min Rain = 0
KASR 120155Z 13005KT 34/14 A2996 RMK A01 T03380139  RH  031%=      5-min Rain = 0
KASR 120200Z 13004KT 34/14 A2997 RMK A01 T03360140  RH  031%=      5-min Rain = 0
KASR 120205Z 13005KT 34/14 A2997 RMK A01 T03350140  RH  032%=      5-min Rain = 0
KASR 120210Z 13005KT 33/14 A2997 RMK A01 T03330140  RH  032%=      5-min Rain = 0
KASR 120215Z 13004KT 33/14 A2997 RMK A01 T03320141  RH  032%=      5-min Rain = 0
KASR 120220Z 12004KT 33/14 A2998 RMK A01 T03300141  RH  033%=      5-min Rain = 0
KASR 120225Z 12004KT 33/14 A2998 RMK A01 T03280141  RH  033%=      5-min Rain = 0
KASR 120230Z 12005KT 33/14 A2998 RMK A01 T03260142  RH  033%=      5-min Rain = 0
KASR 120235Z 12005KT 33/14 A2998 RMK A01 T03260142  RH  034%=      5-min Rain = 0
KASR 120240Z 12007G14KT 33/15 A2998 RMK A01 T03260145  RH  034%=      5-min Rain = 0
KASR 120245Z 12008KT 33/15 A2999 RMK A01 T03270152  RH  036%=      5-min Rain = 0
KASR 120250Z 13008G13KT 33/16 A2999 RMK A01 T03250156  RH  037%=      5-min Rain = 0
KASR 120255Z 12008KT 32/16 A2999 RMK A01 T03230161  RH  039%=      5-min Rain = 0
KASR 120300Z 12009G15KT 32/17 A2999 RMK A01 T03210167  RH  041%=      5-min Rain = 0
KASR 120305Z 12009G16KT 32/17 A30 RMK A01 T03200171  RH  042%=      5-min Rain = 0
KASR 120310Z 12009KT 32/17 A30 RMK A01 T03190173  RH  043%=      5-min Rain = 0
KASR 120315Z 11009G14KT 32/17 A30 RMK A01 T03180174  RH  043%=      5-min Rain = 0
KASR 120320Z 12008KT 32/17 A30 RMK A01 T03160174  RH  044%=      5-min Rain = 0
KASR 120325Z 12008KT 32/18 A3001 RMK A01 T03150175  RH  044%=      5-min Rain = 0
KASR 120330Z 11007KT 31/17 A3001 RMK A01 T03130174  RH  045%=      5-min Rain = 0
KASR 120335Z 11009G15KT 31/18 A3001 RMK A01 T03110175  RH  045%=      5-min Rain = 0
KASR 120340Z 12009KT 31/17 A3001 RMK A01 T03110174  RH  045%=      5-min Rain = 0
KASR 120345Z 12009KT 31/18 A3001 RMK A01 T03100175  RH  045%=      5-min Rain = 0
KASR 120350Z 12010G15KT 31/17 A3001 RMK A01 T03090174  RH  045%=      5-min Rain = 0
KASR 120355Z 11009KT 31/17 A3001 RMK A01 T03080174  RH  046%=      5-min Rain = 0
KASR 120400Z 11008G15KT 31/17 A3001 RMK A01 T03070173  RH  046%=      5-min Rain = 0
KASR 120405Z 12008G16KT 31/17 A3002 RMK A01 T03060173  RH  046%=      5-min Rain = 0
KASR 120410Z 12009G15KT 31/17 A3002 RMK A01 T03050173  RH  046%=      5-min Rain = 0
KASR 120415Z 12008G13KT 30/17 A3002 RMK A01 T03040173  RH  046%=      5-min Rain = 0
KASR 120420Z 12009KT 30/17 A3002 RMK A01 T03030172  RH  046%=      5-min Rain = 0
KASR 120425Z 12009G17KT 30/17 A3002 RMK A01 T03030172  RH  047%=      5-min Rain = 0
KASR 120430Z 12010G18KT 30/17 A3002 RMK A01 T03030172  RH  046%=      5-min Rain = 0
KASR 120435Z 12009G16KT 30/17 A3002 RMK A01 T03020172  RH  047%=      5-min Rain = 0
KASR 120440Z 12010KT 30/17 A3002 RMK A01 T03010172  RH  047%=      5-min Rain = 0
KASR 120445Z 12009G14KT 30/17 A3002 RMK A01 T03000172  RH  047%=      5-min Rain = 0
KASR 120450Z 12009KT 30/17 A3002 RMK A01 T02980172  RH  048%=      5-min Rain = 0
KASR 120455Z 12009G14KT 30/17 A3002 RMK A01 T02980172  RH  048%=      5-min Rain = 0
KASR 120500Z 12009G15KT 30/17 A3003 RMK A01 T02970172  RH  048%=      5-min Rain = 0

Page generated in 0.0243 seconds.